Time;durP1;ratioP1;P1;durP2;ratioP2;P2;SDS_P1;SDS_P2;PMS_P1;PMS_P2;Temp;Humidity;BMP_temperature;BMP_pressure;BME280_temperature;BME280_humidity;BME280_pressure;Samples;Min_cycle;Max_cycle;Signal;HPM_P1;HPM_P2
2021/06/11 00:01:06;;;;;;;15.88;6.07;;;17.80;99.90;;;;;;21052039;28;20051;-48
2021/06/11 00:11:08;;;;;;;13.15;6.20;;;17.50;99.90;;;;;;21050957;28;20043;-48
2021/06/11 00:21:10;;;;;;;14.63;5.82;;;17.50;99.90;;;;;;21050313;28;20043;-48
2021/06/11 00:31:11;;;;;;;13.85;6.55;;;17.50;99.90;;;;;;21050192;28;20038;-48
2021/06/11 00:41:13;;;;;;;15.27;6.53;;;17.50;99.90;;;;;;21049459;28;20055;-48
2021/06/11 00:51:14;;;;;;;16.52;7.63;;;17.40;99.90;;;;;;21050506;28;20044;-48
2021/06/11 01:01:15;;;;;;;20.10;7.88;;;17.20;99.90;;;;;;21048780;28;20047;-48
2021/06/11 01:11:17;;;;;;;16.77;7.55;;;17.20;99.90;;;;;;21048819;28;20089;-48
2021/06/11 01:21:22;;;;;;;20.42;8.48;;;17.10;99.90;;;;;;21045543;28;20052;-48
2021/06/11 01:31:25;;;;;;;17.15;7.95;;;17.00;99.90;;;;;;21048508;28;20499;-48
2021/06/11 01:41:27;;;;;;;18.90;7.13;;;16.90;99.90;;;;;;21046987;28;20058;-47
2021/06/11 01:51:30;;;;;;;16.95;6.90;;;16.80;99.90;;;;;;21043797;28;21547;-48
2021/06/11 02:01:33;;;;;;;17.25;7.30;;;16.80;99.90;;;;;;21043644;28;20451;-48
2021/06/11 02:11:36;;;;;;;16.52;7.93;;;16.70;99.90;;;;;;21052753;28;20040;-47
2021/06/11 02:21:39;;;;;;;19.75;7.95;;;16.70;99.90;;;;;;21044902;28;20040;-47
2021/06/11 02:31:41;;;;;;;17.38;6.55;;;16.60;99.90;;;;;;21045256;28;20047;-47
2021/06/11 02:41:47;;;;;;;17.40;7.28;;;16.50;99.90;;;;;;21044890;28;20048;-48
2021/06/11 02:51:56;;;;;;;19.88;7.53;;;16.70;99.90;;;;;;21044409;28;20047;-47
2021/06/11 03:02:03;;;;;;;16.15;7.20;;;16.70;99.90;;;;;;21038255;28;20335;-47
2021/06/11 03:12:06;;;;;;;24.70;9.20;;;16.70;99.90;;;;;;21041130;28;20098;-47
2021/06/11 03:22:13;;;;;;;17.73;8.30;;;16.70;99.90;;;;;;21039416;28;20063;-47
2021/06/11 03:32:25;;;;;;;17.73;8.17;;;16.60;99.90;;;;;;21039515;28;20036;-47
2021/06/11 03:42:29;;;;;;;16.15;6.10;;;16.70;99.90;;;;;;21040798;28;20044;-47
2021/06/11 03:52:33;;;;;;;10.35;4.10;;;16.40;99.90;;;;;;21038893;28;20040;-47
2021/06/11 04:02:34;;;;;;;9.82;4.55;;;16.30;99.90;;;;;;21038022;28;20048;-47
2021/06/11 04:12:43;;;;;;;11.00;4.07;;;16.20;99.90;;;;;;21039060;28;20110;-47
2021/06/11 04:22:47;;;;;;;9.90;4.00;;;16.10;99.90;;;;;;21037104;28;20052;-50
2021/06/11 04:32:49;;;;;;;7.20;3.15;;;16.00;99.90;;;;;;21034766;28;20036;-48
2021/06/11 04:42:50;;;;;;;7.95;3.58;;;15.70;99.90;;;;;;21052207;28;20056;-50
2021/06/11 04:52:51;;;;;;;7.82;2.55;;;15.80;99.90;;;;;;21051839;28;20044;-48
2021/06/11 05:02:52;;;;;;;10.57;3.60;;;15.80;99.90;;;;;;21050394;28;20134;-49
2021/06/11 05:12:53;;;;;;;13.48;4.22;;;16.10;99.90;;;;;;21044966;28;20047;-48
2021/06/11 05:22:54;;;;;;;18.13;5.68;;;16.20;99.90;;;;;;21046624;28;20091;-48
2021/06/11 05:32:56;;;;;;;23.30;7.25;;;16.30;99.90;;;;;;21043606;28;20044;-48
2021/06/11 05:42:57;;;;;;;19.85;5.15;;;16.50;99.90;;;;;;21049144;28;20119;-48
2021/06/11 05:52:59;;;;;;;28.80;7.97;;;16.60;99.90;;;;;;21043340;28;20040;-48
2021/06/11 06:03:00;;;;;;;35.35;10.18;;;16.90;99.90;;;;;;21043860;28;20264;-48
2021/06/11 06:13:01;;;;;;;25.73;8.15;;;17.10;99.90;;;;;;21044264;28;20040;-48
2021/06/11 06:23:02;;;;;;;25.77;6.90;;;17.20;99.90;;;;;;21036238;28;20106;-48
2021/06/11 06:33:03;;;;;;;24.30;7.53;;;17.20;99.90;;;;;;21040945;28;20036;-49
2021/06/11 06:43:04;;;;;;;26.52;7.57;;;17.40;99.90;;;;;;21042892;28;20047;-49
2021/06/11 06:53:08;;;;;;;20.55;8.75;;;17.50;99.90;;;;;;21046851;28;20098;-49
2021/06/11 07:03:09;;;;;;;28.23;9.23;;;17.80;99.90;;;;;;21037896;28;20044;-49
2021/06/11 07:13:12;;;;;;;29.30;8.77;;;17.90;99.90;;;;;;21030020;28;20047;-50
2021/06/11 07:23:14;;;;;;;20.48;7.88;;;18.10;99.90;;;;;;21048917;28;20059;-50
2021/06/11 07:33:15;;;;;;;23.17;9.05;;;18.40;99.90;;;;;;21046831;28;20050;-50
2021/06/11 07:43:16;;;;;;;24.98;8.93;;;18.40;99.90;;;;;;21048125;28;20056;-50
2021/06/11 07:53:17;;;;;;;34.10;11.68;;;18.60;99.90;;;;;;21048432;28;20079;-50
2021/06/11 08:03:19;;;;;;;32.67;10.77;;;18.50;99.90;;;;;;21019520;28;20113;-50
2021/06/11 08:13:21;;;;;;;26.67;9.75;;;18.70;99.90;;;;;;21050141;28;20040;-50
2021/06/11 08:23:22;;;;;;;23.55;10.13;;;18.80;99.90;;;;;;21060875;28;20048;-50
2021/06/11 08:33:23;;;;;;;27.33;9.48;;;19.20;99.90;;;;;;21059668;28;20075;-50
2021/06/11 08:43:24;;;;;;;22.00;8.27;;;19.70;99.90;;;;;;21056228;28;20081;-50
2021/06/11 08:53:26;;;;;;;21.80;8.27;;;20.00;99.90;;;;;;21051873;28;20036;-48
2021/06/11 09:03:35;;;;;;;25.42;10.32;;;20.20;99.90;;;;;;21052931;28;20062;-48
2021/06/11 09:13:36;;;;;;;18.15;8.07;;;20.30;99.90;;;;;;21057226;28;20058;-48
2021/06/11 09:23:37;;;;;;;23.85;9.18;;;20.50;99.90;;;;;;21056948;28;20051;-48
2021/06/11 09:33:42;;;;;;;18.58;8.57;;;21.00;99.90;;;;;;21059879;28;20047;-50
2021/06/11 09:43:55;;;;;;;20.85;9.50;;;21.30;99.90;;;;;;21057732;28;20052;-50
2021/06/11 09:54:00;;;;;;;18.58;7.07;;;21.70;99.90;;;;;;21058972;28;20063;-49
2021/06/11 10:04:04;;;;;;;18.02;8.75;;;21.50;99.90;;;;;;21055192;28;20040;-50
2021/06/11 10:14:06;;;;;;;19.60;8.20;;;22.30;99.90;;;;;;21052567;28;20043;-48
2021/06/11 10:24:08;;;;;;;16.67;8.25;;;22.50;99.90;;;;;;21047007;28;20051;-50
2021/06/11 10:34:09;;;;;;;18.33;7.65;;;22.20;99.90;;;;;;21050190;28;20083;-48
2021/06/11 10:44:34;;;;;;;15.80;7.53;;;22.00;99.90;;;;;;21048833;28;20032;-48
2021/06/11 10:54:35;;;;;;;17.65;7.30;;;22.20;99.90;;;;;;21045838;28;21834;-48
2021/06/11 11:04:39;;;;;;;12.48;6.07;;;22.50;99.90;;;;;;21047369;28;20056;-48
2021/06/11 11:14:42;;;;;;;12.82;6.55;;;22.80;99.90;;;;;;21045197;28;20082;-50
2021/06/11 11:24:43;;;;;;;17.80;7.28;;;22.80;99.90;;;;;;21038632;28;20044;-50
2021/06/11 11:34:44;;;;;;;14.45;6.07;;;22.30;99.90;;;;;;21041205;28;20050;-48
2021/06/11 11:44:46;;;;;;;16.00;5.90;;;22.60;99.90;;;;;;21037624;28;20131;-48
2021/06/11 11:54:47;;;;;;;8.45;4.60;;;23.40;99.90;;;;;;21029320;28;20044;-48
2021/06/11 12:04:48;;;;;;;9.98;3.90;;;23.70;99.90;;;;;;21032615;28;20699;-50
2021/06/11 12:14:49;;;;;;;7.90;3.70;;;24.70;99.90;;;;;;21032646;28;20040;-50
2021/06/11 12:24:51;;;;;;;8.90;4.13;;;24.60;99.90;;;;;;21034541;28;20051;-50
2021/06/11 12:34:52;;;;;;;9.88;4.82;;;24.90;99.90;;;;;;21033995;28;20063;-50
2021/06/11 12:44:54;;;;;;;9.32;4.43;;;24.70;99.90;;;;;;21032118;28;20040;-50
2021/06/11 12:54:55;;;;;;;11.38;5.90;;;24.80;99.90;;;;;;21037437;28;20040;-48
2021/06/11 13:04:57;;;;;;;11.93;6.13;;;24.60;99.90;;;;;;21047375;28;20039;-50
2021/06/11 13:14:58;;;;;;;12.32;5.13;;;24.70;99.90;;;;;;21044294;28;20044;-50
2021/06/11 13:24:59;;;;;;;9.82;4.70;;;25.20;99.90;;;;;;21045110;28;20051;-51
2021/06/11 13:35:01;;;;;;;7.05;3.17;;;25.30;99.90;;;;;;21026316;28;20152;-50
2021/06/11 13:45:03;;;;;;;7.30;3.67;;;25.20;99.90;;;;;;21043983;28;20161;-52
2021/06/11 13:55:07;;;;;;;10.43;4.78;;;25.50;99.90;;;;;;21041675;28;20036;-50
2021/06/11 14:05:10;;;;;;;6.85;2.97;;;25.60;99.90;;;;;;21022421;28;20048;-51
2021/06/11 14:15:12;;;;;;;5.95;3.17;;;25.10;99.90;;;;;;21013122;28;20101;-50
2021/06/11 14:25:16;;;;;;;6.05;3.28;;;24.80;99.90;;;;;;21047658;28;20101;-50
2021/06/11 14:35:17;;;;;;;6.22;2.42;;;24.90;99.90;;;;;;21028020;28;20102;-50
2021/06/11 14:45:18;;;;;;;6.28;2.83;;;25.00;99.90;;;;;;21044721;28;20044;-50
2021/06/11 14:55:21;;;;;;;6.32;2.83;;;24.80;99.90;;;;;;21044341;28;20089;-50
2021/06/11 15:05:23;;;;;;;7.07;3.58;;;24.70;99.90;;;;;;21037370;28;20075;-50
2021/06/11 15:15:25;;;;;;;3.60;1.45;;;24.50;99.90;;;;;;21044586;28;20039;-50
2021/06/11 15:25:27;;;;;;;4.28;2.25;;;24.30;99.90;;;;;;21039829;28;20152;-50
2021/06/11 15:35:28;;;;;;;3.00;1.27;;;24.40;99.90;;;;;;21041590;28;20036;-50
2021/06/11 15:45:29;;;;;;;2.00;1.23;;;24.20;99.90;;;;;;21043143;28;20121;-50
2021/06/11 15:55:31;;;;;;;3.17;1.15;;;23.90;99.90;;;;;;21043089;28;20418;-50
2021/06/11 16:05:32;;;;;;;2.35;0.98;;;23.80;99.90;;;;;;21046731;28;20926;-50
2021/06/11 16:15:34;;;;;;;3.08;1.60;;;23.60;99.90;;;;;;21047717;28;20036;-50
2021/06/11 16:25:35;;;;;;;7.32;3.67;;;23.50;99.90;;;;;;21047264;28;20387;-50
2021/06/11 16:35:38;;;;;;;7.07;2.40;;;23.20;99.90;;;;;;21053621;28;20078;-49
2021/06/11 16:45:39;;;;;;;9.85;2.72;;;22.70;99.90;;;;;;21058191;28;20036;-50
2021/06/11 16:55:43;;;;;;;8.93;2.83;;;22.80;99.90;;;;;;21058725;28;20050;-50
2021/06/11 17:05:44;;;;;;;7.38;3.75;;;22.80;99.90;;;;;;21054861;28;20111;-50
2021/06/11 17:15:45;;;;;;;5.18;2.40;;;22.50;99.90;;;;;;21013800;28;20044;-50
2021/06/11 17:25:46;;;;;;;5.13;2.20;;;22.40;99.90;;;;;;21048070;28;20032;-50
2021/06/11 17:35:48;;;;;;;4.03;1.00;;;22.20;99.90;;;;;;21041279;28;20056;-50
2021/06/11 17:45:52;;;;;;;1.63;0.90;;;22.00;99.90;;;;;;21043196;28;20047;-50
2021/06/11 17:55:53;;;;;;;2.80;1.50;;;22.00;99.90;;;;;;21010650;28;20688;-50
2021/06/11 18:06:07;;;;;;;2.38;1.13;;;21.90;99.90;;;;;;21046089;28;20485;-51
2021/06/11 18:16:15;;;;;;;3.25;1.40;;;21.90;99.90;;;;;;21030383;28;20044;-49
2021/06/11 18:26:16;;;;;;;2.72;1.42;;;21.90;99.90;;;;;;21042430;28;20046;-49
2021/06/11 18:36:24;;;;;;;4.50;1.58;;;21.60;99.90;;;;;;21035299;28;20418;-49
2021/06/11 18:46:26;;;;;;;3.10;1.48;;;21.40;99.90;;;;;;21027422;28;20739;-49
2021/06/11 18:56:40;;;;;;;3.70;2.13;;;21.30;99.90;;;;;;21045071;28;20348;-48
2021/06/11 19:06:58;;;;;;;4.40;1.52;;;21.40;99.90;;;;;;21044438;28;20750;-49
2021/06/11 19:17:03;;;;;;;4.80;1.40;;;21.30;99.90;;;;;;21017374;28;20530;-49
2021/06/11 19:27:23;;;;;;;8.15;2.60;;;21.30;99.90;;;;;;21039569;28;20464;-49
2021/06/11 19:37:34;;;;;;;5.22;2.00;;;21.30;99.90;;;;;;21006602;28;20062;-49
2021/06/11 19:47:38;;;;;;;2.45;1.10;;;21.00;99.90;;;;;;21038884;28;20472;-49
2021/06/11 19:57:42;;;;;;;4.35;2.10;;;20.80;99.90;;;;;;21036139;28;20430;-49
2021/06/11 20:07:44;;;;;;;2.92;1.40;;;20.60;99.90;;;;;;21041150;28;113236;-49
2021/06/11 20:17:45;;;;;;;4.28;2.22;;;20.40;99.90;;;;;;21039517;28;20044;-49
2021/06/11 20:27:46;;;;;;;5.30;1.98;;;20.20;99.90;;;;;;21052245;28;20495;-49
2021/06/11 20:37:47;;;;;;;5.30;2.33;;;20.10;99.90;;;;;;21051973;28;20047;-49
2021/06/11 20:47:49;;;;;;;4.95;2.03;;;20.00;99.90;;;;;;21054122;28;20036;-49
2021/06/11 20:57:51;;;;;;;4.38;1.83;;;19.90;99.90;;;;;;21050570;28;20055;-49
2021/06/11 21:07:53;;;;;;;4.88;2.05;;;19.80;99.90;;;;;;21025756;28;20579;-49
2021/06/11 21:17:55;;;;;;;4.30;1.35;;;19.70;99.90;;;;;;21051213;28;20404;-49
2021/06/11 21:27:56;;;;;;;6.40;2.80;;;19.60;99.90;;;;;;21036218;28;20487;-49
2021/06/11 21:37:58;;;;;;;6.20;2.20;;;19.40;99.90;;;;;;21036033;28;20044;-49
2021/06/11 21:47:59;;;;;;;5.90;2.60;;;19.50;99.90;;;;;;21045271;28;20047;-49
2021/06/11 21:58:00;;;;;;;5.00;2.50;;;19.40;99.90;;;;;;21044910;28;20488;-49
2021/06/11 22:08:02;;;;;;;4.57;2.25;;;19.30;99.90;;;;;;21043159;28;20532;-49
2021/06/11 22:18:03;;;;;;;6.18;3.20;;;19.20;99.90;;;;;;21041155;28;20544;-49
2021/06/11 22:28:06;;;;;;;5.75;2.85;;;19.10;99.90;;;;;;21042034;28;20438;-49
2021/06/11 22:38:09;;;;;;;7.00;3.22;;;19.10;99.90;;;;;;21042804;28;20442;-49
2021/06/11 22:48:10;;;;;;;6.97;2.67;;;19.10;99.90;;;;;;21042816;28;20526;-49
2021/06/11 22:58:11;;;;;;;5.00;2.40;;;19.00;99.90;;;;;;21042487;28;20527;-49
2021/06/11 23:08:13;;;;;;;5.70;2.35;;;18.90;99.90;;;;;;21043240;28;20051;-49
2021/06/11 23:18:15;;;;;;;5.45;2.80;;;18.90;99.90;;;;;;21041238;28;20484;-49
2021/06/11 23:28:17;;;;;;;5.93;2.40;;;18.90;99.90;;;;;;21036912;28;20040;-49
2021/06/11 23:38:18;;;;;;;6.25;2.53;;;18.80;99.90;;;;;;21037089;28;20807;-49
2021/06/11 23:48:19;;;;;;;5.72;3.15;;;18.60;99.90;;;;;;21038116;28;20548;-49
2021/06/11 23:58:21;;;;;;;8.32;2.83;;;18.70;99.90;;;;;;21039303;28;20068;-49
